createdAt,value
2019-05-16T00:01:01.648Z,6.60
2019-05-16T00:03:28.162Z,6.60
2019-05-16T00:05:54.788Z,6.50
2019-05-16T00:08:21.176Z,6.40
2019-05-16T00:10:48.687Z,6.30
2019-05-16T00:13:18.606Z,6.30
2019-05-16T00:15:45.041Z,6.30
2019-05-16T00:18:11.200Z,6.30
2019-05-16T00:20:38.643Z,6.30
2019-05-16T00:23:05.105Z,6.30
2019-05-16T00:25:31.669Z,6.20
2019-05-16T00:27:58.654Z,6.30
2019-05-16T00:30:25.231Z,6.30
2019-05-16T00:32:51.521Z,6.30
2019-05-16T00:35:18.355Z,6.30
2019-05-16T00:37:44.831Z,6.20
2019-05-16T00:40:11.290Z,6.20
2019-05-16T00:42:39.135Z,6.20
2019-05-16T00:45:08.889Z,6.20
2019-05-16T00:47:34.916Z,6.20
2019-05-16T00:50:01.413Z,6.20
2019-05-16T00:52:28.936Z,6.20
2019-05-16T00:54:58.025Z,6.10
2019-05-16T00:57:25.331Z,6.00
2019-05-16T00:59:52.294Z,6.00
2019-05-16T01:02:18.493Z,6.00
2019-05-16T01:04:44.678Z,6.00
2019-05-16T01:07:11.156Z,6.10
2019-05-16T01:09:38.556Z,6.10
2019-05-16T01:12:24.933Z,6.00
2019-05-16T01:14:51.187Z,6.10
2019-05-16T01:17:18.237Z,6.20
2019-05-16T01:19:44.673Z,6.20
2019-05-16T01:22:10.892Z,6.20
2019-05-16T01:24:38.660Z,6.20
2019-05-16T01:27:05.192Z,6.20
2019-05-16T01:29:31.365Z,6.30
2019-05-16T01:31:58.985Z,6.20
2019-05-16T01:34:25.420Z,6.10
2019-05-16T01:36:51.594Z,6.00
2019-05-16T01:39:18.313Z,6.00
2019-05-16T01:41:44.712Z,6.00
2019-05-16T01:44:10.928Z,6.00
2019-05-16T01:46:39.116Z,6.00
2019-05-16T01:49:05.166Z,5.90
2019-05-16T01:51:31.340Z,5.90
2019-05-16T01:53:58.040Z,5.90
2019-05-16T01:56:24.319Z,5.80
2019-05-16T01:58:50.514Z,5.80
2019-05-16T02:01:19.050Z,5.80
2019-05-16T02:03:45.027Z,5.80
2019-05-16T02:06:11.391Z,5.80
2019-05-16T02:08:38.067Z,5.80
2019-05-16T02:11:04.331Z,5.80
2019-05-16T02:13:30.486Z,5.80
2019-05-16T02:15:59.051Z,5.80
2019-05-16T02:18:24.767Z,5.80
2019-05-16T02:20:50.977Z,5.70
2019-05-16T02:23:18.739Z,5.70
2019-05-16T02:25:45.214Z,5.60
2019-05-16T02:28:11.404Z,5.60
2019-05-16T02:30:37.770Z,5.60
2019-05-16T02:33:05.753Z,5.60
2019-05-16T02:35:31.938Z,5.70
2019-05-16T02:38:00.736Z,5.70
2019-05-16T02:40:26.581Z,5.80
2019-05-16T02:42:55.954Z,5.70
2019-05-16T02:45:24.643Z,5.70
2019-05-16T02:47:51.351Z,5.70
2019-05-16T02:50:18.009Z,5.70
2019-05-16T02:52:44.174Z,5.70
2019-05-16T02:55:11.625Z,5.70
2019-05-16T02:57:41.519Z,5.60
2019-05-16T03:00:12.061Z,5.70
2019-05-16T03:02:37.502Z,5.60
2019-05-16T03:05:04.991Z,5.50
2019-05-16T03:07:40.609Z,5.40
2019-05-16T03:10:01.616Z,5.50
2019-05-16T03:12:30.903Z,5.50
2019-05-16T03:15:01.834Z,5.50
2019-05-16T03:17:26.546Z,5.50
2019-05-16T03:19:56.589Z,5.50
2019-05-16T03:22:24.573Z,5.50
2019-05-16T03:24:51.508Z,5.50
2019-05-16T03:27:21.354Z,5.40
2019-05-16T03:29:46.031Z,5.40
2019-05-16T03:32:13.895Z,5.30
2019-05-16T03:34:43.865Z,5.30
2019-05-16T03:37:13.568Z,5.30
2019-05-16T03:39:36.478Z,5.30
2019-05-16T03:42:02.644Z,5.30
2019-05-16T03:44:31.766Z,5.20
2019-05-16T03:46:56.941Z,5.30
2019-05-16T03:49:23.126Z,5.40
2019-05-16T03:51:50.610Z,5.40
2019-05-16T03:54:16.908Z,5.40
2019-05-16T03:56:43.223Z,5.40
2019-05-16T03:59:11.099Z,5.50
2019-05-16T04:01:40.667Z,5.50
2019-05-16T04:04:05.587Z,5.50
2019-05-16T04:06:32.851Z,5.50
2019-05-16T04:09:01.518Z,5.60
2019-05-16T04:11:27.247Z,5.50
2019-05-16T04:13:53.468Z,5.50
2019-05-16T04:16:20.912Z,5.50
2019-05-16T04:18:47.552Z,5.60
2019-05-16T04:21:17.564Z,5.70
2019-05-16T04:23:42.841Z,5.90
2019-05-16T04:26:11.263Z,6.00
2019-05-16T04:28:37.111Z,6.10
2019-05-16T04:31:03.270Z,6.20
2019-05-16T04:33:30.843Z,6.30
2019-05-16T04:35:57.484Z,6.20
2019-05-16T04:38:40.287Z,6.30
2019-05-16T04:40:51.929Z,6.20
2019-05-16T04:43:22.164Z,6.30
2019-05-16T04:45:47.259Z,6.50
2019-05-16T04:48:13.528Z,6.80
2019-05-16T04:50:41.917Z,7.10
2019-05-16T04:53:07.782Z,7.30
2019-05-16T04:55:34.003Z,7.50
2019-05-16T04:58:01.438Z,7.40
2019-05-16T05:00:31.596Z,7.50
2019-05-16T05:02:56.182Z,7.20
2019-05-16T05:05:22.340Z,7.20
2019-05-16T05:07:51.131Z,7.20
2019-05-16T05:10:16.760Z,7.40
2019-05-16T05:12:42.995Z,7.40
2019-05-16T05:15:11.153Z,7.40
2019-05-16T05:17:37.894Z,7.50
2019-05-16T05:20:05.781Z,7.60
2019-05-16T05:22:31.960Z,8.00
2019-05-16T05:25:00.068Z,8.20
2019-05-16T05:27:26.259Z,8.00
2019-05-16T05:29:52.458Z,7.90
2019-05-16T05:32:20.079Z,8.20
2019-05-16T05:34:46.508Z,8.30
2019-05-16T05:37:12.887Z,8.30
2019-05-16T05:39:39.669Z,8.40
2019-05-16T05:42:06.064Z,8.60
2019-05-16T05:44:32.282Z,8.80
2019-05-16T05:47:00.521Z,8.90
2019-05-16T05:49:27.113Z,9.00
2019-05-16T05:51:53.323Z,8.70
2019-05-16T05:54:20.343Z,8.90
2019-05-16T05:56:46.877Z,9.10
2019-05-16T05:59:13.064Z,9.40
2019-05-16T06:01:40.722Z,9.30
2019-05-16T06:04:10.418Z,9.20
2019-05-16T06:06:36.317Z,9.20
2019-05-16T06:09:04.708Z,9.30
2019-05-16T06:11:30.875Z,9.70
2019-05-16T06:13:57.075Z,10.60
2019-05-16T06:16:23.251Z,11.70
2019-05-16T06:18:50.318Z,12.20
2019-05-16T06:21:16.827Z,13.30
2019-05-16T06:23:43.046Z,13.60
2019-05-16T06:26:12.043Z,13.40
2019-05-16T06:28:37.327Z,13.00
2019-05-16T06:31:03.505Z,13.00
2019-05-16T06:33:30.486Z,13.10
2019-05-16T06:35:56.977Z,12.30
2019-05-16T06:38:23.151Z,11.90
2019-05-16T06:40:52.202Z,11.10
2019-05-16T06:43:17.380Z,10.70
2019-05-16T06:45:43.879Z,10.30
2019-05-16T06:48:10.149Z,10.40
2019-05-16T06:50:36.452Z,10.30
2019-05-16T06:53:02.910Z,10.30
2019-05-16T06:55:30.198Z,10.30
2019-05-16T06:57:57.381Z,10.60
2019-05-16T07:00:23.927Z,10.80
2019-05-16T07:02:50.453Z,11.40
2019-05-16T07:05:16.752Z,12.20
2019-05-16T07:07:44.073Z,12.40
2019-05-16T07:10:10.349Z,12.30
2019-05-16T07:12:36.605Z,13.60
2019-05-16T07:15:06.885Z,14.50
2019-05-16T07:17:33.141Z,18.70
2019-05-16T07:20:00.809Z,21.00
2019-05-16T07:22:27.211Z,20.30
2019-05-16T07:24:53.365Z,20.10
2019-05-16T07:27:21.894Z,19.20
2019-05-16T07:29:47.675Z,18.70
2019-05-16T07:32:13.941Z,18.70
2019-05-16T07:34:40.406Z,18.10
2019-05-16T07:37:06.840Z,18.10
2019-05-16T07:39:33.112Z,15.90
2019-05-16T07:41:59.992Z,15.80
2019-05-16T07:44:26.409Z,15.80
2019-05-16T07:46:52.672Z,16.00
2019-05-16T07:49:19.737Z,15.90
2019-05-16T07:51:46.107Z,16.90
2019-05-16T07:54:12.297Z,17.00
2019-05-16T07:56:40.751Z,16.20
2019-05-16T07:59:06.533Z,15.60
2019-05-16T08:01:32.768Z,15.80
2019-05-16T08:03:59.998Z,15.90
2019-05-16T08:06:26.449Z,15.90
2019-05-16T08:08:52.626Z,17.00
2019-05-16T08:11:20.536Z,16.00
2019-05-16T08:13:46.914Z,18.20
2019-05-16T08:16:13.105Z,18.80
2019-05-16T08:18:44.719Z,18.30
2019-05-16T08:21:07.365Z,21.80
2019-05-16T08:23:33.747Z,27.80
2019-05-16T08:26:01.148Z,31.60
2019-05-16T08:28:30.807Z,32.20
2019-05-16T08:30:57.146Z,31.10
2019-05-16T08:33:23.397Z,29.50
2019-05-16T08:38:21.110Z,24.00
2019-05-16T08:41:04.675Z,22.10
2019-05-16T08:43:14.093Z,21.20
2019-05-16T08:48:11.317Z,20.90
2019-05-16T08:50:36.708Z,20.40
2019-05-16T08:53:12.897Z,18.50
2019-05-16T08:55:37.220Z,17.30
2019-05-16T08:58:03.404Z,16.90
2019-05-16T09:00:33.450Z,17.30
2019-05-16T09:03:01.455Z,16.80
2019-05-16T09:05:25.761Z,16.60
2019-05-16T09:10:31.460Z,27.20
2019-05-16T09:10:31.604Z,21.00
2019-05-16T09:10:32.874Z,16.10
2019-05-16T09:12:48.690Z,15.70
2019-05-16T09:15:17.111Z,15.90
2019-05-16T09:17:43.200Z,15.10
2019-05-16T09:20:09.860Z,15.50
2019-05-16T09:22:37.808Z,15.30
2019-05-16T09:25:08.086Z,15.70
2019-05-16T09:27:33.666Z,15.30
2019-05-16T09:29:59.853Z,15.40
2019-05-16T09:32:27.868Z,15.20
2019-05-16T09:34:56.980Z,15.90
2019-05-16T09:37:22.260Z,15.90
2019-05-16T09:39:48.762Z,16.50
2019-05-16T09:42:17.142Z,17.00
2019-05-16T09:44:43.210Z,16.60
2019-05-16T09:47:09.369Z,16.90
2019-05-16T09:49:37.138Z,17.20
2019-05-16T09:52:03.871Z,17.30
2019-05-16T09:54:30.104Z,17.70
2019-05-16T09:56:57.135Z,18.80
2019-05-16T09:59:23.574Z,19.10
2019-05-16T10:01:49.794Z,18.30
2019-05-16T10:04:17.449Z,17.90
2019-05-16T10:06:43.864Z,18.10
2019-05-16T10:09:10.038Z,19.70
2019-05-16T10:11:42.082Z,20.50
2019-05-16T10:14:07.076Z,20.30
2019-05-16T10:16:32.872Z,20.90
2019-05-16T10:18:59.051Z,22.10
2019-05-16T10:21:27.148Z,22.80
2019-05-16T10:23:53.340Z,21.60
2019-05-16T10:26:19.637Z,20.90
2019-05-16T10:28:46.853Z,21.70
2019-05-16T10:31:13.154Z,21.60
2019-05-16T10:33:39.458Z,21.60
2019-05-16T10:36:08.163Z,22.80
2019-05-16T10:38:33.743Z,23.70
2019-05-16T10:40:59.920Z,23.40
2019-05-16T10:43:26.580Z,23.40
2019-05-16T10:45:53.777Z,22.70
2019-05-16T10:48:20.218Z,21.80
2019-05-16T10:50:47.831Z,21.90
2019-05-16T10:53:33.524Z,23.10
2019-05-16T10:55:42.749Z,22.00
2019-05-16T10:58:09.126Z,21.30
2019-05-16T11:01:05.109Z,22.50
2019-05-16T11:03:03.544Z,23.10
2019-05-16T11:05:35.885Z,22.10
2019-05-16T11:07:57.978Z,21.40
2019-05-16T11:10:26.903Z,20.60
2019-05-16T11:12:55.624Z,20.00
2019-05-16T11:15:20.646Z,20.60
2019-05-16T11:17:46.864Z,21.60
2019-05-16T11:20:19.798Z,22.60
2019-05-16T11:22:47.561Z,21.70
2019-05-16T11:25:24.773Z,21.40
2019-05-16T11:27:41.339Z,20.60
2019-05-16T11:30:08.440Z,20.80
2019-05-16T11:32:37.288Z,19.20
2019-05-16T11:35:07.417Z,18.30
2019-05-16T11:37:37.521Z,18.10
2019-05-16T11:40:06.751Z,18.90
2019-05-16T11:42:37.526Z,19.90
2019-05-16T11:45:09.224Z,21.20
2019-05-16T11:47:36.825Z,24.10
2019-05-16T11:50:08.472Z,23.20
2019-05-16T11:52:34.758Z,21.50
2019-05-16T11:55:03.873Z,20.70
2019-05-16T11:57:30.788Z,19.50
2019-05-16T11:59:56.974Z,19.50
2019-05-16T12:02:23.359Z,20.10
2019-05-16T12:04:49.554Z,19.30
2019-05-16T12:07:19.204Z,19.30
2019-05-16T12:09:50.023Z,18.90
2019-05-16T12:12:11.961Z,18.00
2019-05-16T12:14:38.760Z,18.10
2019-05-16T12:17:07.268Z,17.20
2019-05-16T12:19:37.731Z,17.30
2019-05-16T12:22:02.361Z,17.80
2019-05-16T12:24:36.472Z,17.60
2019-05-16T12:26:56.872Z,17.00
2019-05-16T12:29:27.930Z,16.80
2019-05-16T12:31:58.514Z,17.00
2019-05-16T12:34:21.033Z,17.00
2019-05-16T12:36:47.429Z,17.00
2019-05-16T12:39:13.807Z,16.40
2019-05-16T12:41:41.434Z,16.10
2019-05-16T12:44:08.156Z,15.50
2019-05-16T12:46:36.554Z,15.50
2019-05-16T12:49:03.211Z,15.30
2019-05-16T12:51:29.422Z,15.10
2019-05-16T12:53:57.208Z,14.70
2019-05-16T12:56:23.655Z,14.90
2019-05-16T12:58:50.946Z,14.70
2019-05-16T13:01:20.436Z,14.70
2019-05-16T13:03:47.982Z,14.50
2019-05-16T13:06:13.487Z,14.60
2019-05-16T13:08:39.661Z,14.40
2019-05-16T13:11:07.056Z,14.10
2019-05-16T13:13:33.785Z,14.40
2019-05-16T13:15:59.940Z,14.40
2019-05-16T13:18:27.574Z,14.00
2019-05-16T13:20:54.019Z,13.80
2019-05-16T13:23:20.221Z,13.70
2019-05-16T13:25:48.071Z,13.80
2019-05-16T13:28:14.927Z,14.00
2019-05-16T13:30:41.149Z,14.00
2019-05-16T13:33:08.408Z,14.10
2019-05-16T13:35:36.913Z,13.90
2019-05-16T13:38:02.674Z,13.50
2019-05-16T13:40:28.826Z,13.70
2019-05-16T13:42:57.190Z,13.70
2019-05-16T13:45:23.123Z,14.00
2019-05-16T13:47:49.360Z,14.00
2019-05-16T13:50:16.831Z,13.90
2019-05-16T13:52:43.271Z,14.20
2019-05-16T13:55:09.746Z,14.20
2019-05-16T13:57:37.411Z,14.30
2019-05-16T14:00:07.560Z,14.40
2019-05-16T14:02:37.541Z,14.20
2019-05-16T14:05:07.691Z,14.30
2019-05-16T14:07:37.040Z,14.20
2019-05-16T14:10:05.347Z,13.90
2019-05-16T14:12:31.697Z,13.80
2019-05-16T14:14:57.860Z,13.80
2019-05-16T14:17:24.056Z,13.70
2019-05-16T14:19:50.317Z,13.80
2019-05-16T14:22:17.535Z,13.50
2019-05-16T14:24:44.099Z,13.60
2019-05-16T14:27:10.292Z,13.30
2019-05-16T14:29:37.702Z,13.20
2019-05-16T14:32:04.220Z,13.10
2019-05-16T14:34:30.709Z,13.30
2019-05-16T14:36:57.876Z,13.30
2019-05-16T14:39:28.093Z,13.40
2019-05-16T14:41:52.350Z,13.50
2019-05-16T14:44:18.672Z,13.70
2019-05-16T14:46:47.460Z,13.70
2019-05-16T14:49:13.406Z,13.70
2019-05-16T14:51:39.700Z,13.90
2019-05-16T14:54:07.449Z,14.10
2019-05-16T14:56:34.042Z,14.10
2019-05-16T14:59:00.203Z,14.00
2019-05-16T15:01:47.274Z,13.90
2019-05-16T15:04:13.446Z,13.80
2019-05-16T15:06:40.734Z,13.80
2019-05-16T15:09:07.746Z,13.80
2019-05-16T15:11:34.078Z,13.80
2019-05-16T15:14:00.384Z,13.50
2019-05-16T15:16:27.326Z,13.70
2019-05-16T15:18:53.867Z,13.50
2019-05-16T15:21:20.098Z,13.60
2019-05-16T15:23:47.219Z,13.50
2019-05-16T15:26:13.409Z,13.40
2019-05-16T15:28:39.722Z,13.00
2019-05-16T15:31:07.012Z,12.90
2019-05-16T15:33:36.519Z,13.00
2019-05-16T15:36:02.699Z,13.00
2019-05-16T15:38:29.137Z,12.80
2019-05-16T15:40:57.396Z,12.60
2019-05-16T15:43:23.481Z,12.40
2019-05-16T15:45:52.955Z,12.30
2019-05-16T15:48:17.906Z,12.20
2019-05-16T15:50:44.177Z,12.20
2019-05-16T15:53:11.574Z,12.30
2019-05-16T15:55:37.936Z,12.40
2019-05-16T15:58:09.787Z,12.30
2019-05-16T16:00:48.253Z,12.10
2019-05-16T16:03:17.530Z,12.00
2019-05-16T16:05:44.341Z,12.00
2019-05-16T16:08:10.999Z,12.10
2019-05-16T16:10:39.245Z,12.10
2019-05-16T16:13:06.837Z,12.10
2019-05-16T16:15:34.094Z,11.90
2019-05-16T16:18:00.297Z,11.90
2019-05-16T16:20:27.311Z,11.80
2019-05-16T16:22:53.707Z,11.70
2019-05-16T16:25:19.947Z,11.70
2019-05-16T16:27:46.196Z,11.70
2019-05-16T16:30:13.031Z,11.70
2019-05-16T16:32:39.419Z,11.60
2019-05-16T16:35:08.082Z,11.50
2019-05-16T16:37:34.153Z,11.40
2019-05-16T16:40:00.310Z,11.40
2019-05-16T16:42:27.236Z,11.30
2019-05-16T16:44:53.704Z,11.30
2019-05-16T16:47:19.876Z,11.20
2019-05-16T16:49:46.062Z,11.20
2019-05-16T16:52:12.468Z,11.30
2019-05-16T16:54:38.716Z,11.30
2019-05-16T16:57:07.507Z,11.10
2019-05-16T16:59:33.135Z,11.10
2019-05-16T17:01:59.383Z,11.20
2019-05-16T17:04:26.699Z,11.20
2019-05-16T17:06:53.048Z,11.10
2019-05-16T17:09:19.229Z,11.00
2019-05-16T17:11:46.528Z,10.90
2019-05-16T17:14:13.031Z,10.80
2019-05-16T17:16:39.279Z,10.80
2019-05-16T17:19:07.668Z,10.70
2019-05-16T17:21:33.655Z,10.70
2019-05-16T17:23:59.841Z,10.80
2019-05-16T17:26:27.589Z,10.70
2019-05-16T17:28:54.052Z,10.70
2019-05-16T17:31:20.252Z,10.70
2019-05-16T17:33:46.445Z,10.60
2019-05-16T17:36:13.008Z,10.60
2019-05-16T17:38:39.246Z,10.60
2019-05-16T17:41:07.468Z,10.60
2019-05-16T17:43:33.710Z,10.70
2019-05-16T17:45:59.968Z,10.70
2019-05-16T17:48:29.605Z,10.60
2019-05-16T17:50:54.319Z,10.50
2019-05-16T17:53:20.601Z,10.40
2019-05-16T17:55:47.464Z,10.50
2019-05-16T17:58:13.808Z,10.50
2019-05-16T18:00:40.087Z,10.50
2019-05-16T18:03:06.809Z,10.40
2019-05-16T18:05:33.203Z,10.40
2019-05-16T18:07:59.501Z,10.40
2019-05-16T18:10:27.093Z,10.40
2019-05-16T18:12:53.617Z,10.40
2019-05-16T18:15:20.708Z,10.30
2019-05-16T18:17:47.128Z,10.30
2019-05-16T18:20:13.808Z,10.20
2019-05-16T18:22:39.980Z,10.10
2019-05-16T18:25:07.413Z,10.10
2019-05-16T18:27:33.578Z,10.10
2019-05-16T18:29:59.743Z,10.10
2019-05-16T18:32:26.567Z,10.10
2019-05-16T18:34:53.001Z,10.10
2019-05-16T18:37:19.196Z,10.00
2019-05-16T18:39:47.275Z,9.90
2019-05-16T18:42:13.784Z,10.00
2019-05-16T18:44:39.960Z,10.00
2019-05-16T18:47:10.484Z,10.00
2019-05-16T18:49:36.589Z,9.90
2019-05-16T18:52:03.466Z,10.00
2019-05-16T18:54:29.626Z,10.00
2019-05-16T18:56:57.866Z,10.00
2019-05-16T18:59:26.098Z,10.00
2019-05-16T19:01:52.085Z,10.00
2019-05-16T19:04:18.487Z,10.00
2019-05-16T19:06:44.837Z,10.10
2019-05-16T19:09:11.027Z,10.10
2019-05-16T19:11:37.393Z,10.10
2019-05-16T19:14:03.677Z,10.00
2019-05-16T19:16:29.918Z,9.90
2019-05-16T19:18:56.560Z,9.90
2019-05-16T19:21:26.133Z,9.90
2019-05-16T19:23:52.854Z,9.80
2019-05-16T19:26:19.599Z,9.80
2019-05-16T19:28:46.698Z,9.80
2019-05-16T19:31:14.294Z,9.70
2019-05-16T19:33:40.532Z,9.70
2019-05-16T19:36:07.434Z,9.70
2019-05-16T19:38:33.856Z,9.70
2019-05-16T19:41:00.041Z,9.70
2019-05-16T19:43:26.633Z,9.70
2019-05-16T19:45:53.114Z,9.70
2019-05-16T19:48:19.273Z,9.60
2019-05-16T19:50:46.413Z,9.50
2019-05-16T19:53:12.705Z,9.60
2019-05-16T19:55:38.909Z,9.50
2019-05-16T19:58:06.898Z,9.50
2019-05-16T20:00:33.190Z,9.50
2019-05-16T20:02:59.371Z,9.60
2019-05-16T20:05:26.688Z,9.60
2019-05-16T20:07:53.276Z,9.60
2019-05-16T20:10:19.646Z,9.50
2019-05-16T20:12:46.342Z,9.50
2019-05-16T20:15:13.426Z,9.50
2019-05-16T20:17:51.005Z,9.50
2019-05-16T20:20:08.730Z,9.50
2019-05-16T20:22:36.945Z,9.50
2019-05-16T20:25:04.775Z,9.60
2019-05-16T20:27:31.164Z,9.60
2019-05-16T20:29:59.425Z,9.60
2019-05-16T20:32:27.519Z,9.60
2019-05-16T20:34:53.506Z,9.60
2019-05-16T20:37:19.704Z,9.60
2019-05-16T20:39:46.591Z,9.60
2019-05-16T20:42:13.962Z,9.60
2019-05-16T20:44:40.117Z,9.60
2019-05-16T20:47:07.247Z,9.50
2019-05-16T20:49:33.618Z,9.50
2019-05-16T20:51:59.804Z,9.40
2019-05-16T20:54:26.834Z,9.40
2019-05-16T20:56:53.174Z,9.40
2019-05-16T20:59:19.364Z,9.40
2019-05-16T21:01:46.513Z,9.30
2019-05-16T21:04:13.616Z,9.30
2019-05-16T21:06:39.801Z,9.30
2019-05-16T21:09:06.728Z,9.30
2019-05-16T21:11:33.201Z,9.30
2019-05-16T21:13:59.385Z,9.30
2019-05-16T21:16:27.045Z,9.20
2019-05-16T21:18:53.602Z,9.20
2019-05-16T21:21:19.756Z,9.20
2019-05-16T21:23:46.983Z,9.20
2019-05-16T21:26:13.304Z,9.20
2019-05-16T21:28:39.614Z,9.20
2019-05-16T21:31:07.423Z,9.20
2019-05-16T21:33:36.230Z,9.20
2019-05-16T21:36:02.309Z,9.20
2019-05-16T21:38:28.613Z,9.10
2019-05-16T21:40:58.171Z,9.00
2019-05-16T21:43:22.862Z,9.00
2019-05-16T21:45:49.039Z,9.10
2019-05-16T21:48:19.199Z,9.10
2019-05-16T21:50:46.306Z,9.10
2019-05-16T21:53:12.555Z,9.10
2019-05-16T21:55:38.758Z,9.00
2019-05-16T21:58:04.951Z,9.10
2019-05-16T22:00:37.507Z,9.20
2019-05-16T22:03:04.322Z,9.10
2019-05-16T22:05:30.813Z,9.10
2019-05-16T22:07:56.998Z,9.10
2019-05-16T22:10:23.320Z,8.90
2019-05-16T22:12:51.388Z,8.70
2019-05-16T22:15:17.673Z,8.60
2019-05-16T22:17:47.142Z,8.60
2019-05-16T22:20:16.592Z,8.50
2019-05-16T22:22:43.098Z,8.50
2019-05-16T22:25:09.781Z,8.40
2019-05-16T22:27:36.033Z,8.40
2019-05-16T22:30:09.001Z,8.30
2019-05-16T22:32:36.334Z,8.30
2019-05-16T22:35:07.894Z,8.30
2019-05-16T22:37:46.133Z,8.20
2019-05-16T22:40:02.767Z,8.10
2019-05-16T22:42:29.177Z,8.00
2019-05-16T22:44:56.362Z,8.10
2019-05-16T22:47:22.558Z,8.10
2019-05-16T22:49:48.717Z,7.90
2019-05-16T22:52:17.048Z,7.90
2019-05-16T22:54:42.989Z,7.90
2019-05-16T22:57:09.178Z,7.70
2019-05-16T22:59:35.374Z,7.70
2019-05-16T23:02:02.802Z,7.70
2019-05-16T23:04:29.096Z,7.70
2019-05-16T23:06:56.472Z,7.60
2019-05-16T23:09:22.904Z,7.60
2019-05-16T23:11:49.169Z,7.60
2019-05-16T23:14:17.027Z,7.60
2019-05-16T23:16:43.418Z,7.50
2019-05-16T23:19:09.599Z,7.50
2019-05-16T23:21:36.787Z,7.40
2019-05-16T23:24:03.718Z,7.40
2019-05-16T23:26:29.890Z,7.30
2019-05-16T23:28:56.518Z,7.30
2019-05-16T23:31:22.898Z,7.40
2019-05-16T23:33:49.390Z,7.30
2019-05-16T23:36:17.466Z,7.20
2019-05-16T23:38:44.280Z,7.20
2019-05-16T23:41:10.486Z,7.10
2019-05-16T23:43:37.271Z,7.00
2019-05-16T23:46:03.901Z,7.00
2019-05-16T23:48:30.060Z,7.00
2019-05-16T23:50:56.940Z,7.00
2019-05-16T23:53:23.248Z,7.00
2019-05-16T23:55:49.401Z,7.00
2019-05-16T23:58:15.577Z,7.00
